Terminal Aerodrome Forecast
Issued by NWS

Home | Current Version | Previous Version | Text Only | Print | Product List | Glossary On
Versions: 1 2 3 4 5 6 7 8 9 10 11 12 13 14 15 16 17 18 19 20 21 22 23 24 25 26 27 28 29 30 31 32
000
FTUS44 KLIX 211740
TAFHUM
TAF
KHUM 211740Z 2118/2218 14014G22KT P6SM OVC024
     FM212000 14012KT P6SM BKN035
     FM220400 14009KT 5SM BR BKN030
     FM220500 14010KT 5SM BR BKN035
     FM220800 18008KT 4SM BR BKN020
     FM221200 18008KT 5SM -RA OVC015 PROB30 2212/2218 VRB15G25KT 2SM
      TSRA BR OVC003CB=

USA.gov is the U.S. government's official web portal to all federal, state and local government web resources and services.